createdAt,value
2023-05-12T00:02:37.744Z,7.20
2023-05-12T00:06:50.204Z,8.30
2023-05-12T00:11:03.168Z,7.00
2023-05-12T00:15:15.783Z,7.05
2023-05-12T00:19:28.317Z,6.93
2023-05-12T00:23:40.872Z,8.52
2023-05-12T00:27:53.405Z,7.65
2023-05-12T00:32:07.289Z,7.85
2023-05-12T00:36:20.164Z,10.27
2023-05-12T00:40:32.732Z,5.60
2023-05-12T00:44:45.869Z,5.65
2023-05-12T00:48:59.312Z,7.00
2023-05-12T00:53:13.375Z,7.55
2023-05-12T00:57:28.291Z,5.15
2023-05-12T01:01:41.377Z,8.60
2023-05-12T01:06:15.846Z,3.88
2023-05-12T01:10:28.312Z,6.53
2023-05-12T01:14:41.808Z,8.45
2023-05-12T01:18:56.497Z,7.75
2023-05-12T01:23:09.893Z,5.75
2023-05-12T01:27:26.106Z,7.90
2023-05-12T01:31:39.612Z,7.32
2023-05-12T01:35:52.079Z,6.10
2023-05-12T01:40:05.322Z,6.07
2023-05-12T01:44:18.062Z,8.38
2023-05-12T01:48:30.820Z,5.93
2023-05-12T01:52:45.986Z,5.82
2023-05-12T01:57:01.129Z,8.55
2023-05-12T02:01:13.744Z,7.63
2023-05-12T02:05:26.688Z,5.40
2023-05-12T02:09:39.504Z,6.10
2023-05-12T02:13:52.554Z,6.15
2023-05-12T02:18:05.250Z,5.00
2023-05-12T02:22:17.882Z,4.75
2023-05-12T02:26:30.347Z,6.07
2023-05-12T02:30:51.105Z,4.40
2023-05-12T02:35:03.510Z,6.78
2023-05-12T02:39:16.141Z,5.85
2023-05-12T02:43:28.525Z,7.10
2023-05-12T02:47:41.059Z,5.93
2023-05-12T02:51:55.230Z,6.03
2023-05-12T02:56:08.433Z,5.55
2023-05-12T03:00:21.029Z,4.43
2023-05-12T03:04:34.127Z,5.53
2023-05-12T03:08:47.278Z,3.58
2023-05-12T03:12:59.780Z,6.43
2023-05-12T03:17:12.365Z,8.10
2023-05-12T03:21:24.871Z,7.28
2023-05-12T03:25:37.229Z,7.47
2023-05-12T03:29:49.716Z,6.10
2023-05-12T03:34:02.392Z,5.40
2023-05-12T03:38:14.832Z,5.78
2023-05-12T03:42:27.233Z,5.93
2023-05-12T03:46:39.675Z,6.95
2023-05-12T03:50:52.163Z,5.05
2023-05-12T03:55:07.252Z,3.53
2023-05-12T03:59:19.777Z,8.27
2023-05-12T04:03:32.375Z,4.10
2023-05-12T04:07:44.772Z,5.05
2023-05-12T04:11:57.256Z,3.85
2023-05-12T04:16:10.166Z,5.35
2023-05-12T04:20:23.317Z,6.43
2023-05-12T04:24:37.915Z,5.30
2023-05-12T04:28:50.604Z,3.70
2023-05-12T04:33:03.486Z,7.35
2023-05-12T04:37:16.538Z,5.10
2023-05-12T04:41:30.154Z,5.75
2023-05-12T04:45:44.405Z,6.75
2023-05-12T04:50:00.157Z,3.83
2023-05-12T04:54:12.800Z,4.88
2023-05-12T04:58:25.749Z,6.03
2023-05-12T05:02:38.688Z,5.55
2023-05-12T05:06:51.346Z,6.70
2023-05-12T05:11:04.691Z,5.90
2023-05-12T05:15:17.896Z,10.38
2023-05-12T05:23:48.285Z,10.82
2023-05-12T05:28:01.499Z,7.75
2023-05-12T05:32:14.240Z,7.93
2023-05-12T05:36:27.345Z,18.30
2023-05-12T05:40:52.109Z,10.82
2023-05-12T05:45:06.786Z,13.05
2023-05-12T05:49:20.383Z,11.27
2023-05-12T05:53:33.592Z,8.90
2023-05-12T05:57:46.780Z,13.75
2023-05-12T06:01:59.258Z,12.98
2023-05-12T06:06:11.703Z,9.07
2023-05-12T06:10:24.878Z,13.00
2023-05-12T06:14:37.281Z,14.98
2023-05-12T06:18:49.728Z,18.63
2023-05-12T06:23:02.405Z,14.18
2023-05-12T06:27:14.865Z,17.60
2023-05-12T06:31:27.294Z,16.05
2023-05-12T06:35:40.125Z,14.65
2023-05-12T06:39:52.589Z,12.40
2023-05-12T06:44:06.584Z,18.88
2023-05-12T06:48:18.873Z,16.35
2023-05-12T06:52:31.783Z,8.50
2023-05-12T06:56:44.510Z,17.42
2023-05-12T07:00:57.815Z,10.23
2023-05-12T07:05:10.455Z,8.32
2023-05-12T07:09:23.255Z,9.15
2023-05-12T07:13:35.817Z,6.50
2023-05-12T07:17:48.452Z,6.30
2023-05-12T07:22:00.900Z,8.95
2023-05-12T07:26:13.469Z,7.93
2023-05-12T07:30:26.019Z,10.40
2023-05-12T07:34:39.133Z,10.00
2023-05-12T07:38:51.678Z,8.68
2023-05-12T07:43:04.095Z,10.70
2023-05-12T07:47:16.482Z,6.88
2023-05-12T07:51:29.396Z,7.90
2023-05-12T07:55:43.497Z,6.95
2023-05-12T07:59:56.281Z,11.02
2023-05-12T08:04:11.283Z,9.32
2023-05-12T08:08:23.682Z,5.68
2023-05-12T08:12:36.214Z,7.00
2023-05-12T08:16:48.797Z,5.70
2023-05-12T08:21:01.313Z,6.57
2023-05-12T08:25:13.850Z,7.03
2023-05-12T08:29:26.194Z,6.57
2023-05-12T08:33:38.708Z,7.38
2023-05-12T08:37:51.215Z,7.45
2023-05-12T08:42:27.858Z,10.25
2023-05-12T08:46:41.090Z,5.47
2023-05-12T08:50:55.034Z,9.68
2023-05-12T08:55:09.724Z,7.45
2023-05-12T08:59:23.952Z,10.38
2023-05-12T09:03:36.573Z,5.47
2023-05-12T09:07:50.729Z,9.50
2023-05-12T09:12:04.343Z,8.80
2023-05-12T09:16:23.570Z,9.20
2023-05-12T09:24:48.701Z,6.13
2023-05-12T09:29:08.708Z,7.68
2023-05-12T09:33:23.287Z,8.30
2023-05-12T09:37:35.845Z,10.68
2023-05-12T09:41:48.520Z,9.02
2023-05-12T09:46:06.408Z,7.93
2023-05-12T09:50:19.660Z,8.18
2023-05-12T09:54:33.906Z,7.28
2023-05-12T09:58:48.545Z,4.88
2023-05-12T10:03:01.832Z,11.38
2023-05-12T10:07:17.097Z,8.07
2023-05-12T10:11:30.206Z,8.93
2023-05-12T10:15:44.397Z,8.13
2023-05-12T10:19:57.671Z,6.35
2023-05-12T10:24:10.082Z,9.65
2023-05-12T10:28:22.849Z,7.07
2023-05-12T10:32:35.502Z,8.27
2023-05-12T10:36:50.537Z,6.07
2023-05-12T10:41:06.708Z,6.55
2023-05-12T10:45:20.708Z,9.18
2023-05-12T10:49:36.821Z,8.65
2023-05-12T10:53:54.891Z,10.30
2023-05-12T10:58:11.614Z,11.32
2023-05-12T11:02:32.063Z,13.70
2023-05-12T11:06:46.764Z,7.78
2023-05-12T11:10:59.742Z,10.90
2023-05-12T11:15:12.770Z,13.30
2023-05-12T11:19:25.154Z,15.40
2023-05-12T11:23:37.975Z,11.70
2023-05-12T11:27:50.894Z,22.48
2023-05-12T11:32:03.455Z,13.73
2023-05-12T11:36:21.773Z,16.15
2023-05-12T11:40:41.371Z,14.50
2023-05-12T11:49:12.973Z,14.60
2023-05-12T11:53:26.085Z,13.70
2023-05-12T11:57:40.050Z,17.77
2023-05-12T12:01:52.562Z,12.55
2023-05-12T12:06:11.029Z,13.13
2023-05-12T12:10:23.510Z,16.35
2023-05-12T12:14:38.297Z,16.40
2023-05-12T12:18:50.921Z,19.70
2023-05-12T12:23:03.410Z,17.35
2023-05-12T12:27:16.110Z,16.08
2023-05-12T12:31:28.721Z,12.90
2023-05-12T12:35:41.727Z,13.32
2023-05-12T12:39:54.649Z,16.52
2023-05-12T12:44:07.420Z,15.75
2023-05-12T12:48:21.399Z,13.38
2023-05-12T12:52:34.098Z,15.85
2023-05-12T12:56:46.614Z,12.57
2023-05-12T13:00:59.443Z,18.15
2023-05-12T13:05:12.060Z,15.95
2023-05-12T13:09:24.740Z,15.80
2023-05-12T13:13:38.471Z,18.45
2023-05-12T13:17:51.030Z,19.05
2023-05-12T13:22:03.591Z,18.55
2023-05-12T13:26:16.121Z,16.10
2023-05-12T13:30:28.531Z,14.43
2023-05-12T13:34:41.115Z,13.90
2023-05-12T13:38:53.471Z,12.93
2023-05-12T13:43:05.905Z,13.77
2023-05-12T13:47:19.300Z,12.77
2023-05-12T13:51:32.720Z,12.50
2023-05-12T13:55:45.286Z,12.88
2023-05-12T13:59:58.849Z,15.10
2023-05-12T14:04:12.185Z,14.05
2023-05-12T14:08:24.528Z,11.85
2023-05-12T14:12:41.534Z,15.57
2023-05-12T14:16:54.411Z,14.32
2023-05-12T14:21:07.068Z,18.00
2023-05-12T14:25:19.776Z,16.55
2023-05-12T14:29:32.332Z,21.40
2023-05-12T14:33:44.785Z,17.52
2023-05-12T14:37:57.392Z,17.33
2023-05-12T14:42:09.823Z,16.77
2023-05-12T14:46:22.481Z,13.07
2023-05-12T14:50:35.050Z,16.77
2023-05-12T14:54:47.472Z,14.38
2023-05-12T14:59:00.390Z,14.60
2023-05-12T15:03:13.844Z,16.58
2023-05-12T15:07:26.396Z,14.38
2023-05-12T15:11:38.875Z,12.93
2023-05-12T15:15:55.076Z,15.73
2023-05-12T15:20:10.303Z,17.25
2023-05-12T15:24:22.675Z,15.70
2023-05-12T15:28:35.170Z,13.10
2023-05-12T15:32:47.752Z,13.52
2023-05-12T15:37:00.290Z,16.45
2023-05-12T15:41:13.005Z,23.40
2023-05-12T15:45:25.655Z,14.27
2023-05-12T15:49:37.963Z,15.27
2023-05-12T15:53:53.692Z,19.20
2023-05-12T15:58:08.485Z,19.95
2023-05-12T16:02:20.918Z,19.33
2023-05-12T16:06:33.454Z,15.35
2023-05-12T16:10:45.971Z,20.77
2023-05-12T16:14:58.394Z,19.85
2023-05-12T16:19:11.017Z,24.23
2023-05-12T16:23:23.514Z,29.98
2023-05-12T16:27:36.886Z,20.48
2023-05-12T16:31:49.557Z,20.35
2023-05-12T16:36:02.194Z,20.05
2023-05-12T16:40:15.579Z,27.27
2023-05-12T16:44:28.209Z,18.15
2023-05-12T16:48:40.540Z,18.98
2023-05-12T16:52:54.151Z,24.77
2023-05-12T16:57:06.827Z,21.55
2023-05-12T17:01:19.611Z,23.00
2023-05-12T17:05:32.128Z,20.73
2023-05-12T17:09:44.436Z,25.85
2023-05-12T17:13:56.859Z,22.58
2023-05-12T17:18:09.593Z,22.70
2023-05-12T17:22:22.360Z,18.17
2023-05-12T17:26:35.328Z,21.83
2023-05-12T17:30:48.321Z,26.83
2023-05-12T17:35:00.884Z,25.15
2023-05-12T17:39:16.252Z,23.08
2023-05-12T17:43:30.052Z,21.13
2023-05-12T17:47:43.622Z,26.05
2023-05-12T17:51:56.459Z,24.33
2023-05-12T17:56:09.010Z,25.48
2023-05-12T18:00:22.042Z,18.35
2023-05-12T18:04:35.121Z,15.38
2023-05-12T18:08:47.581Z,18.77
2023-05-12T18:13:00.040Z,22.10
2023-05-12T18:17:12.430Z,21.83
2023-05-12T18:21:25.439Z,17.90
2023-05-12T18:25:38.009Z,19.75
2023-05-12T18:29:50.491Z,22.75
2023-05-12T18:34:02.968Z,24.20
2023-05-12T18:38:15.379Z,21.13
2023-05-12T18:42:29.247Z,20.00
2023-05-12T18:46:41.725Z,20.30
2023-05-12T18:50:57.264Z,24.13
2023-05-12T18:55:09.962Z,24.13
2023-05-12T18:59:22.391Z,28.02
2023-05-12T19:03:34.826Z,27.92
2023-05-12T19:07:47.088Z,25.50
2023-05-12T19:11:59.898Z,26.42
2023-05-12T19:16:12.509Z,23.58
2023-05-12T19:20:24.996Z,24.08
2023-05-12T19:24:38.244Z,20.13
2023-05-12T19:28:50.752Z,28.73
2023-05-12T19:33:03.266Z,22.50
2023-05-12T19:37:15.755Z,30.27
2023-05-12T19:41:30.268Z,20.95
2023-05-12T19:45:42.905Z,23.20
2023-05-12T19:49:55.598Z,25.23
2023-05-12T19:54:10.326Z,24.23
2023-05-12T19:58:22.914Z,21.38
2023-05-12T20:02:35.514Z,18.42
2023-05-12T20:06:47.928Z,23.70
2023-05-12T20:11:00.333Z,26.13
2023-05-12T20:15:12.805Z,22.55
2023-05-12T20:19:25.216Z,21.83
2023-05-12T20:23:38.251Z,24.60
2023-05-12T20:27:50.725Z,28.33
2023-05-12T20:32:03.243Z,27.23
2023-05-12T20:36:15.713Z,23.25
2023-05-12T20:40:28.106Z,25.63
2023-05-12T20:44:40.989Z,27.10
2023-05-12T20:48:53.353Z,27.20
2023-05-12T20:53:05.930Z,23.33
2023-05-12T20:57:18.425Z,27.15
2023-05-12T21:01:31.237Z,23.95
2023-05-12T21:05:47.962Z,21.55
2023-05-12T21:10:00.894Z,21.90
2023-05-12T21:14:13.416Z,26.95
2023-05-12T21:18:26.147Z,27.65
2023-05-12T21:22:40.928Z,22.08
2023-05-12T21:26:53.344Z,23.80
2023-05-12T21:31:05.915Z,21.90
2023-05-12T21:35:19.058Z,21.25
2023-05-12T21:39:31.529Z,18.10
2023-05-12T21:43:43.931Z,18.08
2023-05-12T21:47:56.469Z,15.98
2023-05-12T21:52:09.659Z,17.08
2023-05-12T21:56:23.340Z,15.65
2023-05-12T22:00:35.760Z,18.63
2023-05-12T22:04:48.234Z,16.42
2023-05-12T22:09:00.905Z,23.02
2023-05-12T22:13:13.341Z,19.92
2023-05-12T22:17:25.811Z,15.57
2023-05-12T22:21:41.332Z,20.30
2023-05-12T22:25:53.875Z,14.98
2023-05-12T22:30:06.998Z,16.20
2023-05-12T22:34:19.544Z,16.88
2023-05-12T22:38:31.995Z,13.90
2023-05-12T22:42:44.448Z,13.45
2023-05-12T22:46:56.832Z,21.63
2023-05-12T22:51:09.796Z,21.58
2023-05-12T22:55:22.463Z,18.13
2023-05-12T22:59:34.855Z,14.23
2023-05-12T23:03:47.379Z,14.90
2023-05-12T23:07:59.881Z,15.77
2023-05-12T23:12:12.511Z,14.63
2023-05-12T23:16:25.942Z,20.13
2023-05-12T23:20:38.446Z,12.48
2023-05-12T23:24:52.443Z,15.32
2023-05-12T23:29:04.872Z,15.35
2023-05-12T23:33:17.660Z,13.80
2023-05-12T23:37:30.093Z,14.23
2023-05-12T23:41:42.519Z,13.90
2023-05-12T23:45:55.033Z,13.13
2023-05-12T23:50:08.130Z,13.00
2023-05-12T23:54:20.618Z,21.40
2023-05-12T23:58:33.014Z,17.35
